sensor_id;sensor_type;location;lat;lon;timestamp;pressure;altitude;pressure_sealevel;temperature;humidity
31595;BME280;18200;48.726;8.892;2022-11-09T00:02:36;96393.63;;;22.77;36.93
31595;BME280;18200;48.726;8.892;2022-11-09T00:06:37;96398.31;;;22.30;37.83
31595;BME280;18200;48.726;8.892;2022-11-09T00:10:37;96384.59;;;22.42;37.41
31595;BME280;18200;48.726;8.892;2022-11-09T00:14:38;96388.84;;;21.84;38.76
31595;BME280;18200;48.726;8.892;2022-11-09T00:18:39;96387.91;;;22.37;37.11
31595;BME280;18200;48.726;8.892;2022-11-09T00:22:40;96391.31;;;22.29;38.18
31595;BME280;18200;48.726;8.892;2022-11-09T00:26:41;96395.00;;;22.60;37.88
31595;BME280;18200;48.726;8.892;2022-11-09T00:30:41;96404.91;;;22.20;37.58
31595;BME280;18200;48.726;8.892;2022-11-09T00:34:43;96392.34;;;22.69;36.32
31595;BME280;18200;48.726;8.892;2022-11-09T00:38:47;96384.13;;;23.03;35.67
31595;BME280;18200;48.726;8.892;2022-11-09T00:42:48;96382.03;;;22.14;37.42
31595;BME280;18200;48.726;8.892;2022-11-09T00:46:49;96379.47;;;22.32;38.38
31595;BME280;18200;48.726;8.892;2022-11-09T00:50:55;96372.19;;;22.16;38.49
31595;BME280;18200;48.726;8.892;2022-11-09T00:54:56;96384.94;;;22.57;37.97
31595;BME280;18200;48.726;8.892;2022-11-09T00:58:56;96387.00;;;22.66;37.85
31595;BME280;18200;48.726;8.892;2022-11-09T01:02:57;96386.66;;;22.51;37.85
31595;BME280;18200;48.726;8.892;2022-11-09T01:06:58;96395.25;;;22.28;37.97
31595;BME280;18200;48.726;8.892;2022-11-09T01:11:04;96386.59;;;22.42;37.83
31595;BME280;18200;48.726;8.892;2022-11-09T01:15:05;96390.97;;;22.86;37.26
31595;BME280;18200;48.726;8.892;2022-11-09T01:19:07;96385.47;;;22.65;37.43
31595;BME280;18200;48.726;8.892;2022-11-09T01:23:08;96401.34;;;22.57;37.79
31595;BME280;18200;48.726;8.892;2022-11-09T01:27:09;96397.41;;;22.58;37.61
31595;BME280;18200;48.726;8.892;2022-11-09T01:31:12;96397.56;;;22.17;38.00
31595;BME280;18200;48.726;8.892;2022-11-09T01:35:13;96388.69;;;22.85;37.29
31595;BME280;18200;48.726;8.892;2022-11-09T01:39:13;96387.69;;;23.13;36.59
31595;BME280;18200;48.726;8.892;2022-11-09T01:43:19;96389.34;;;23.10;36.88
31595;BME280;18200;48.726;8.892;2022-11-09T01:47:23;96372.78;;;23.36;36.16
31595;BME280;18200;48.726;8.892;2022-11-09T01:51:37;96392.59;;;22.62;37.08
31595;BME280;18200;48.726;8.892;2022-11-09T01:55:39;96383.59;;;22.96;36.83
31595;BME280;18200;48.726;8.892;2022-11-09T01:59:43;96388.69;;;23.06;37.12
31595;BME280;18200;48.726;8.892;2022-11-09T02:03:54;96398.38;;;22.98;36.05
31595;BME280;18200;48.726;8.892;2022-11-09T02:07:58;96404.31;;;22.97;36.22
31595;BME280;18200;48.726;8.892;2022-11-09T02:12:01;96406.56;;;23.33;35.63
31595;BME280;18200;48.726;8.892;2022-11-09T02:16:02;96407.19;;;23.15;36.67
31595;BME280;18200;48.726;8.892;2022-11-09T02:20:13;96397.41;;;22.58;37.69
31595;BME280;18200;48.726;8.892;2022-11-09T02:24:14;96404.31;;;22.63;38.00
31595;BME280;18200;48.726;8.892;2022-11-09T02:28:15;96405.13;;;22.85;38.33
31595;BME280;18200;48.726;8.892;2022-11-09T02:32:23;96412.38;;;23.35;37.26
31595;BME280;18200;48.726;8.892;2022-11-09T02:36:29;96421.22;;;23.39;36.83
31595;BME280;18200;48.726;8.892;2022-11-09T02:40:32;96417.00;;;23.03;37.56
31595;BME280;18200;48.726;8.892;2022-11-09T02:44:38;96413.81;;;23.27;37.17
31595;BME280;18200;48.726;8.892;2022-11-09T02:48:41;96422.69;;;23.31;37.31
31595;BME280;18200;48.726;8.892;2022-11-09T02:52:42;96429.63;;;23.23;37.02
31595;BME280;18200;48.726;8.892;2022-11-09T02:56:42;96420.31;;;23.85;36.90
31595;BME280;18200;48.726;8.892;2022-11-09T03:00:43;96430.91;;;23.74;36.71
31595;BME280;18200;48.726;8.892;2022-11-09T03:04:45;96428.66;;;23.51;37.77
31595;BME280;18200;48.726;8.892;2022-11-09T03:08:46;96430.06;;;23.34;38.19
31595;BME280;18200;48.726;8.892;2022-11-09T03:12:48;96433.53;;;22.78;39.42
31595;BME280;18200;48.726;8.892;2022-11-09T03:16:48;96431.47;;;23.26;37.85
31595;BME280;18200;48.726;8.892;2022-11-09T03:20:49;96421.38;;;23.57;38.15
31595;BME280;18200;48.726;8.892;2022-11-09T03:24:51;96422.53;;;23.47;39.00
31595;BME280;18200;48.726;8.892;2022-11-09T03:28:51;96426.97;;;23.32;39.23
31595;BME280;18200;48.726;8.892;2022-11-09T03:32:59;96420.97;;;23.46;39.03
31595;BME280;18200;48.726;8.892;2022-11-09T03:37:01;96419.31;;;23.27;39.24
31595;BME280;18200;48.726;8.892;2022-11-09T03:41:02;96416.38;;;23.21;39.90
31595;BME280;18200;48.726;8.892;2022-11-09T03:45:03;96419.94;;;23.09;40.57
31595;BME280;18200;48.726;8.892;2022-11-09T03:49:04;96409.09;;;23.05;40.76
31595;BME280;18200;48.726;8.892;2022-11-09T03:53:06;96410.63;;;23.06;40.47
31595;BME280;18200;48.726;8.892;2022-11-09T03:57:08;96418.47;;;22.61;41.35
31595;BME280;18200;48.726;8.892;2022-11-09T04:01:09;96424.13;;;22.54;41.40
31595;BME280;18200;48.726;8.892;2022-11-09T04:05:10;96427.41;;;22.49;42.86
31595;BME280;18200;48.726;8.892;2022-11-09T04:09:11;96439.56;;;22.73;42.41
31595;BME280;18200;48.726;8.892;2022-11-09T04:13:11;96437.69;;;23.04;41.42
31595;BME280;18200;48.726;8.892;2022-11-09T04:17:11;96443.50;;;23.06;42.20
31595;BME280;18200;48.726;8.892;2022-11-09T04:21:12;96449.03;;;22.94;41.71
31595;BME280;18200;48.726;8.892;2022-11-09T04:25:12;96448.97;;;23.06;41.83
31595;BME280;18200;48.726;8.892;2022-11-09T04:29:13;96437.06;;;23.35;42.01
31595;BME280;18200;48.726;8.892;2022-11-09T04:33:13;96428.00;;;23.47;41.65
31595;BME280;18200;48.726;8.892;2022-11-09T04:37:14;96420.41;;;23.51;41.49
31595;BME280;18200;48.726;8.892;2022-11-09T04:41:14;96393.03;;;23.60;41.13
31595;BME280;18200;48.726;8.892;2022-11-09T04:45:15;96407.81;;;22.97;41.84
31595;BME280;18200;48.726;8.892;2022-11-09T04:49:15;96416.19;;;22.81;42.64
31595;BME280;18200;48.726;8.892;2022-11-09T04:53:16;96402.72;;;23.08;42.12
31595;BME280;18200;48.726;8.892;2022-11-09T04:57:16;96405.41;;;23.21;42.18
31595;BME280;18200;48.726;8.892;2022-11-09T05:01:17;96412.53;;;22.97;43.04
31595;BME280;18200;48.726;8.892;2022-11-09T05:05:17;96403.22;;;22.94;43.44
31595;BME280;18200;48.726;8.892;2022-11-09T05:09:17;96409.28;;;23.11;43.01
31595;BME280;18200;48.726;8.892;2022-11-09T05:13:18;96403.72;;;22.80;43.81
31595;BME280;18200;48.726;8.892;2022-11-09T05:17:18;96397.50;;;23.01;43.50
31595;BME280;18200;48.726;8.892;2022-11-09T05:21:19;96401.78;;;23.24;43.17
31595;BME280;18200;48.726;8.892;2022-11-09T05:25:19;96411.25;;;22.17;44.42
31595;BME280;18200;48.726;8.892;2022-11-09T05:29:19;96400.44;;;21.34;46.67
31595;BME280;18200;48.726;8.892;2022-11-09T05:33:20;96391.44;;;22.25;44.66
31595;BME280;18200;48.726;8.892;2022-11-09T05:37:20;96395.97;;;22.66;43.64
31595;BME280;18200;48.726;8.892;2022-11-09T05:41:22;96410.34;;;22.45;44.08
31595;BME280;18200;48.726;8.892;2022-11-09T05:45:23;96394.25;;;23.15;42.17
31595;BME280;18200;48.726;8.892;2022-11-09T05:49:24;96407.06;;;23.19;42.50
31595;BME280;18200;48.726;8.892;2022-11-09T05:53:25;96408.97;;;23.31;41.63
31595;BME280;18200;48.726;8.892;2022-11-09T05:57:26;96406.53;;;23.11;42.29
31595;BME280;18200;48.726;8.892;2022-11-09T06:01:27;96414.31;;;22.91;43.16
31595;BME280;18200;48.726;8.892;2022-11-09T06:05:27;96435.31;;;22.47;44.03
31595;BME280;18200;48.726;8.892;2022-11-09T06:09:28;96429.09;;;22.21;43.72
31595;BME280;18200;48.726;8.892;2022-11-09T06:13:28;96434.91;;;22.95;42.05
31595;BME280;18200;48.726;8.892;2022-11-09T06:17:29;96444.16;;;23.10;42.04
31595;BME280;18200;48.726;8.892;2022-11-09T06:21:29;96450.25;;;22.93;42.20
31595;BME280;18200;48.726;8.892;2022-11-09T06:25:31;96445.66;;;22.90;42.12
31595;BME280;18200;48.726;8.892;2022-11-09T06:29:32;96445.19;;;23.26;41.61
31595;BME280;18200;48.726;8.892;2022-11-09T06:33:33;96452.38;;;22.76;42.62
31595;BME280;18200;48.726;8.892;2022-11-09T06:37:34;96447.34;;;22.62;42.68
31595;BME280;18200;48.726;8.892;2022-11-09T06:41:35;96450.66;;;23.04;42.10
31595;BME280;18200;48.726;8.892;2022-11-09T06:45:35;96454.78;;;22.49;43.63
31595;BME280;18200;48.726;8.892;2022-11-09T06:49:36;96463.00;;;22.62;43.38
31595;BME280;18200;48.726;8.892;2022-11-09T06:53:36;96480.16;;;22.87;42.49
31595;BME280;18200;48.726;8.892;2022-11-09T06:57:37;96490.97;;;22.69;43.59
31595;BME280;18200;48.726;8.892;2022-11-09T07:01:38;96521.41;;;23.18;42.53
31595;BME280;18200;48.726;8.892;2022-11-09T07:05:38;96538.50;;;20.78;48.56
31595;BME280;18200;48.726;8.892;2022-11-09T07:09:39;96552.06;;;21.58;47.98
31595;BME280;18200;48.726;8.892;2022-11-09T07:13:39;96534.19;;;22.24;46.07
31595;BME280;18200;48.726;8.892;2022-11-09T07:17:39;96524.44;;;22.86;45.01
31595;BME280;18200;48.726;8.892;2022-11-09T07:21:40;96550.91;;;22.01;46.94
31595;BME280;18200;48.726;8.892;2022-11-09T07:25:40;96542.25;;;23.15;43.83
31595;BME280;18200;48.726;8.892;2022-11-09T07:29:41;96533.34;;;23.37;43.59
31595;BME280;18200;48.726;8.892;2022-11-09T07:33:41;96530.16;;;23.81;43.03
31595;BME280;18200;48.726;8.892;2022-11-09T07:37:41;96528.75;;;23.99;41.88
31595;BME280;18200;48.726;8.892;2022-11-09T07:41:42;96534.13;;;24.02;42.04
31595;BME280;18200;48.726;8.892;2022-11-09T07:45:42;96533.72;;;23.13;44.16
31595;BME280;18200;48.726;8.892;2022-11-09T07:49:43;96531.06;;;23.57;43.70
31595;BME280;18200;48.726;8.892;2022-11-09T07:53:43;96530.44;;;23.53;43.13
31595;BME280;18200;48.726;8.892;2022-11-09T07:57:44;96537.44;;;23.54;43.49
31595;BME280;18200;48.726;8.892;2022-11-09T08:01:46;96539.38;;;24.09;42.67
31595;BME280;18200;48.726;8.892;2022-11-09T08:05:47;96536.81;;;23.93;42.48
31595;BME280;18200;48.726;8.892;2022-11-09T08:09:48;96546.84;;;23.65;43.02
31595;BME280;18200;48.726;8.892;2022-11-09T08:13:48;96536.28;;;23.64;43.22
31595;BME280;18200;48.726;8.892;2022-11-09T08:17:49;96528.28;;;23.69;43.27
31595;BME280;18200;48.726;8.892;2022-11-09T08:21:50;96534.25;;;23.77;42.81
31595;BME280;18200;48.726;8.892;2022-11-09T08:25:54;96534.88;;;23.81;43.41
31595;BME280;18200;48.726;8.892;2022-11-09T08:29:55;96531.91;;;22.85;45.86
31595;BME280;18200;48.726;8.892;2022-11-09T08:33:55;96528.88;;;23.52;44.38
31595;BME280;18200;48.726;8.892;2022-11-09T08:38:00;96529.41;;;22.66;46.28
31595;BME280;18200;48.726;8.892;2022-11-09T08:42:01;96519.31;;;22.25;47.44
31595;BME280;18200;48.726;8.892;2022-11-09T08:46:01;96529.16;;;22.48;46.94
31595;BME280;18200;48.726;8.892;2022-11-09T08:50:02;96527.38;;;23.04;45.73
31595;BME280;18200;48.726;8.892;2022-11-09T08:54:05;96525.56;;;22.38;47.78
31595;BME280;18200;48.726;8.892;2022-11-09T08:58:06;96537.28;;;22.89;47.00
31595;BME280;18200;48.726;8.892;2022-11-09T09:02:08;96544.31;;;23.37;45.86
31595;BME280;18200;48.726;8.892;2022-11-09T09:06:09;96550.22;;;22.76;47.03
31595;BME280;18200;48.726;8.892;2022-11-09T09:10:09;96553.47;;;22.46;47.62
31595;BME280;18200;48.726;8.892;2022-11-09T09:14:10;96557.72;;;23.09;45.89
31595;BME280;18200;48.726;8.892;2022-11-09T09:18:10;96562.78;;;23.79;44.07
31595;BME280;18200;48.726;8.892;2022-11-09T09:22:11;96558.50;;;23.57;44.16
31595;BME280;18200;48.726;8.892;2022-11-09T09:26:12;96562.06;;;24.31;43.17
31595;BME280;18200;48.726;8.892;2022-11-09T09:30:12;96561.22;;;24.43;41.99
31595;BME280;18200;48.726;8.892;2022-11-09T09:34:13;96559.03;;;23.86;43.87
31595;BME280;18200;48.726;8.892;2022-11-09T09:38:14;96574.97;;;23.57;44.34
31595;BME280;18200;48.726;8.892;2022-11-09T09:42:30;96566.00;;;24.92;42.41
31595;BME280;18200;48.726;8.892;2022-11-09T09:50:51;96572.88;;;25.54;41.27
31595;BME280;18200;48.726;8.892;2022-11-09T10:03:19;96567.88;;;25.04;42.49
31595;BME280;18200;48.726;8.892;2022-11-09T10:15:49;96559.34;;;25.20;42.20
31595;BME280;18200;48.726;8.892;2022-11-09T10:28:40;96552.09;;;25.44;41.44
31595;BME280;18200;48.726;8.892;2022-11-09T10:32:48;96544.00;;;25.68;41.60
31595;BME280;18200;48.726;8.892;2022-11-09T10:37:03;96539.25;;;25.68;41.93
31595;BME280;18200;48.726;8.892;2022-11-09T10:41:25;96538.91;;;25.93;40.77
31595;BME280;18200;48.726;8.892;2022-11-09T10:46:01;96519.44;;;26.24;40.65
31595;BME280;18200;48.726;8.892;2022-11-09T10:58:50;96525.19;;;25.48;41.76
31595;BME280;18200;48.726;8.892;2022-11-09T11:03:15;96526.69;;;25.40;42.31
31595;BME280;18200;48.726;8.892;2022-11-09T11:07:35;96519.09;;;25.53;41.91
31595;BME280;18200;48.726;8.892;2022-11-09T11:12:15;96519.06;;;25.44;41.59
31595;BME280;18200;48.726;8.892;2022-11-09T11:16:35;96511.41;;;25.21;41.91
31595;BME280;18200;48.726;8.892;2022-11-09T11:21:25;96513.22;;;25.15;42.60
31595;BME280;18200;48.726;8.892;2022-11-09T11:30:33;96508.81;;;25.35;42.66
31595;BME280;18200;48.726;8.892;2022-11-09T11:34:57;96497.97;;;25.59;41.35
31595;BME280;18200;48.726;8.892;2022-11-09T11:39:45;96512.44;;;24.56;43.38
31595;BME280;18200;48.726;8.892;2022-11-09T11:53:23;96502.84;;;25.19;42.58
31595;BME280;18200;48.726;8.892;2022-11-09T11:58:05;96500.44;;;25.57;41.55
31595;BME280;18200;48.726;8.892;2022-11-09T12:20:33;96491.38;;;26.35;40.58
31595;BME280;18200;48.726;8.892;2022-11-09T12:25:13;96478.59;;;26.88;39.07
31595;BME280;18200;48.726;8.892;2022-11-09T12:34:24;96475.13;;;26.46;40.07
31595;BME280;18200;48.726;8.892;2022-11-09T12:38:56;96470.69;;;26.81;39.87
31595;BME280;18200;48.726;8.892;2022-11-09T12:43:29;96474.72;;;27.18;38.76
31595;BME280;18200;48.726;8.892;2022-11-09T12:47:50;96470.25;;;27.21;38.72
31595;BME280;18200;48.726;8.892;2022-11-09T12:52:15;96472.25;;;27.20;38.98
31595;BME280;18200;48.726;8.892;2022-11-09T12:56:41;96473.41;;;27.28;38.87
31595;BME280;18200;48.726;8.892;2022-11-09T13:01:09;96469.69;;;27.70;37.69
31595;BME280;18200;48.726;8.892;2022-11-09T13:05:34;96475.19;;;27.40;38.38
31595;BME280;18200;48.726;8.892;2022-11-09T13:09:57;96471.13;;;27.65;38.33
31595;BME280;18200;48.726;8.892;2022-11-09T13:18:50;96470.06;;;27.62;38.65
31595;BME280;18200;48.726;8.892;2022-11-09T13:27:47;96487.31;;;27.72;37.82
31595;BME280;18200;48.726;8.892;2022-11-09T13:36:28;96491.59;;;27.88;37.83
31595;BME280;18200;48.726;8.892;2022-11-09T13:40:53;96495.97;;;27.80;37.72
31595;BME280;18200;48.726;8.892;2022-11-09T13:45:27;96503.31;;;27.83;37.80
31595;BME280;18200;48.726;8.892;2022-11-09T13:49:49;96498.47;;;27.78;38.48
31595;BME280;18200;48.726;8.892;2022-11-09T13:58:48;96499.88;;;27.73;38.78
31595;BME280;18200;48.726;8.892;2022-11-09T14:03:24;96515.41;;;27.71;38.46
31595;BME280;18200;48.726;8.892;2022-11-09T14:07:43;96524.44;;;27.86;39.41
31595;BME280;18200;48.726;8.892;2022-11-09T14:12:33;96523.47;;;27.59;39.46
31595;BME280;18200;48.726;8.892;2022-11-09T14:16:58;96531.34;;;27.52;39.26
31595;BME280;18200;48.726;8.892;2022-11-09T14:21:42;96537.03;;;27.01;40.20
31595;BME280;18200;48.726;8.892;2022-11-09T14:26:06;96533.78;;;27.35;39.67
31595;BME280;18200;48.726;8.892;2022-11-09T14:30:29;96532.59;;;27.27;39.35
31595;BME280;18200;48.726;8.892;2022-11-09T14:34:48;96544.50;;;27.33;39.98
31595;BME280;18200;48.726;8.892;2022-11-09T14:39:30;96545.72;;;27.32;39.85
31595;BME280;18200;48.726;8.892;2022-11-09T14:43:54;96554.06;;;27.23;39.55
31595;BME280;18200;48.726;8.892;2022-11-09T14:48:18;96559.59;;;27.23;39.87
31595;BME280;18200;48.726;8.892;2022-11-09T14:52:38;96565.13;;;27.23;39.98
31595;BME280;18200;48.726;8.892;2022-11-09T14:56:59;96562.59;;;27.11;39.82
31595;BME280;18200;48.726;8.892;2022-11-09T15:01:22;96567.13;;;27.46;39.38
31595;BME280;18200;48.726;8.892;2022-11-09T15:05:41;96570.25;;;27.30;40.10
31595;BME280;18200;48.726;8.892;2022-11-09T15:10:07;96575.19;;;27.26;39.07
31595;BME280;18200;48.726;8.892;2022-11-09T15:14:36;96575.31;;;27.08;39.90
31595;BME280;18200;48.726;8.892;2022-11-09T15:18:55;96578.16;;;26.90;40.22
31595;BME280;18200;48.726;8.892;2022-11-09T15:23:36;96572.59;;;26.99;40.24
31595;BME280;18200;48.726;8.892;2022-11-09T15:32:18;96571.81;;;26.66;41.29
31595;BME280;18200;48.726;8.892;2022-11-09T15:36:37;96583.28;;;25.86;42.08
31595;BME280;18200;48.726;8.892;2022-11-09T15:40:57;96576.38;;;26.69;40.25
31595;BME280;18200;48.726;8.892;2022-11-09T15:45:18;96580.38;;;26.68;40.41
31595;BME280;18200;48.726;8.892;2022-11-09T15:49:38;96582.88;;;26.57;40.31
31595;BME280;18200;48.726;8.892;2022-11-09T15:53:56;96591.72;;;26.61;40.19
31595;BME280;18200;48.726;8.892;2022-11-09T15:58:17;96595.75;;;26.51;39.84
31595;BME280;18200;48.726;8.892;2022-11-09T16:02:36;96590.34;;;26.56;40.32
31595;BME280;18200;48.726;8.892;2022-11-09T16:06:55;96582.84;;;26.66;40.16
31595;BME280;18200;48.726;8.892;2022-11-09T16:11:14;96583.03;;;26.53;40.79
31595;BME280;18200;48.726;8.892;2022-11-09T16:15:35;96597.94;;;26.29;41.50
31595;BME280;18200;48.726;8.892;2022-11-09T16:19:55;96601.75;;;26.31;40.84
31595;BME280;18200;48.726;8.892;2022-11-09T16:24:15;96601.31;;;25.96;41.73
31595;BME280;18200;48.726;8.892;2022-11-09T16:28:34;96610.19;;;25.82;41.76
31595;BME280;18200;48.726;8.892;2022-11-09T16:32:55;96618.91;;;25.99;41.37
31595;BME280;18200;48.726;8.892;2022-11-09T16:37:14;96605.47;;;25.83;41.54
31595;BME280;18200;48.726;8.892;2022-11-09T16:41:37;96608.03;;;25.77;41.84
31595;BME280;18200;48.726;8.892;2022-11-09T16:45:57;96616.59;;;25.79;42.29
31595;BME280;18200;48.726;8.892;2022-11-09T16:50:17;96626.38;;;25.53;42.38
31595;BME280;18200;48.726;8.892;2022-11-09T16:54:36;96627.56;;;25.43;42.29
31595;BME280;18200;48.726;8.892;2022-11-09T16:58:55;96637.84;;;25.12;42.68
31595;BME280;18200;48.726;8.892;2022-11-09T17:03:14;96644.81;;;24.95;43.33
31595;BME280;18200;48.726;8.892;2022-11-09T17:07:34;96644.66;;;24.89;43.15
31595;BME280;18200;48.726;8.892;2022-11-09T17:11:55;96640.88;;;25.05;43.14
31595;BME280;18200;48.726;8.892;2022-11-09T17:16:13;96648.53;;;24.05;45.15
31595;BME280;18200;48.726;8.892;2022-11-09T17:20:45;96665.53;;;24.34;43.18
31595;BME280;18200;48.726;8.892;2022-11-09T17:25:05;96676.56;;;24.87;41.95
31595;BME280;18200;48.726;8.892;2022-11-09T17:29:24;96686.19;;;25.31;40.78
31595;BME280;18200;48.726;8.892;2022-11-09T17:33:44;96694.47;;;25.00;41.40
31595;BME280;18200;48.726;8.892;2022-11-09T17:38:03;96685.34;;;25.43;40.44
31595;BME280;18200;48.726;8.892;2022-11-09T17:42:22;96693.94;;;25.54;40.04
31595;BME280;18200;48.726;8.892;2022-11-09T17:46:41;96708.47;;;25.55;39.79
31595;BME280;18200;48.726;8.892;2022-11-09T17:51:01;96709.88;;;25.68;39.74
31595;BME280;18200;48.726;8.892;2022-11-09T17:55:20;96722.56;;;25.66;39.67
31595;BME280;18200;48.726;8.892;2022-11-09T17:59:39;96725.91;;;25.61;40.32
31595;BME280;18200;48.726;8.892;2022-11-09T18:03:58;96737.59;;;25.43;40.77
31595;BME280;18200;48.726;8.892;2022-11-09T18:08:17;96745.56;;;25.10;42.27
31595;BME280;18200;48.726;8.892;2022-11-09T18:12:36;96740.00;;;25.32;41.50
31595;BME280;18200;48.726;8.892;2022-11-09T18:16:55;96744.53;;;25.26;40.90
31595;BME280;18200;48.726;8.892;2022-11-09T18:21:18;96749.19;;;25.38;40.61
31595;BME280;18200;48.726;8.892;2022-11-09T18:25:37;96752.34;;;25.27;40.24
31595;BME280;18200;48.726;8.892;2022-11-09T18:29:56;96740.75;;;25.32;40.57
31595;BME280;18200;48.726;8.892;2022-11-09T18:34:16;96754.88;;;25.44;40.96
31595;BME280;18200;48.726;8.892;2022-11-09T18:38:36;96758.38;;;25.13;40.95
31595;BME280;18200;48.726;8.892;2022-11-09T18:42:55;96755.59;;;25.04;41.15
31595;BME280;18200;48.726;8.892;2022-11-09T18:47:14;96767.25;;;25.08;40.87
31595;BME280;18200;48.726;8.892;2022-11-09T18:51:33;96785.00;;;24.95;41.52
31595;BME280;18200;48.726;8.892;2022-11-09T18:55:58;96777.63;;;25.13;41.09
31595;BME280;18200;48.726;8.892;2022-11-09T19:00:18;96786.41;;;25.21;41.43
31595;BME280;18200;48.726;8.892;2022-11-09T19:04:38;96784.22;;;24.73;41.90
31595;BME280;18200;48.726;8.892;2022-11-09T19:08:57;96785.16;;;24.91;41.46
31595;BME280;18200;48.726;8.892;2022-11-09T19:13:35;96802.78;;;25.03;40.98
31595;BME280;18200;48.726;8.892;2022-11-09T19:17:54;96791.47;;;25.01;41.45
31595;BME280;18200;48.726;8.892;2022-11-09T19:22:15;96802.78;;;25.03;41.67
31595;BME280;18200;48.726;8.892;2022-11-09T19:26:35;96812.69;;;25.00;41.43
31595;BME280;18200;48.726;8.892;2022-11-09T19:30:56;96812.44;;;24.51;42.28
31595;BME280;18200;48.726;8.892;2022-11-09T19:35:15;96813.16;;;24.30;42.60
31595;BME280;18200;48.726;8.892;2022-11-09T19:39:34;96821.00;;;24.53;42.48
31595;BME280;18200;48.726;8.892;2022-11-09T19:43:55;96830.56;;;24.02;41.78
31595;BME280;18200;48.726;8.892;2022-11-09T19:48:16;96834.31;;;24.55;41.56
31595;BME280;18200;48.726;8.892;2022-11-09T19:52:35;96845.16;;;24.58;40.57
31595;BME280;18200;48.726;8.892;2022-11-09T19:56:54;96852.59;;;24.71;40.32
31595;BME280;18200;48.726;8.892;2022-11-09T20:01:14;96860.50;;;24.68;40.74
31595;BME280;18200;48.726;8.892;2022-11-09T20:05:34;96856.81;;;24.62;40.34
31595;BME280;18200;48.726;8.892;2022-11-09T20:09:52;96861.41;;;24.65;40.03
31595;BME280;18200;48.726;8.892;2022-11-09T20:14:12;96858.53;;;24.82;39.80
31595;BME280;18200;48.726;8.892;2022-11-09T20:18:36;96864.16;;;24.78;39.65
31595;BME280;18200;48.726;8.892;2022-11-09T20:22:55;96864.09;;;24.56;40.39
31595;BME280;18200;48.726;8.892;2022-11-09T20:27:14;96875.94;;;24.53;40.06
31595;BME280;18200;48.726;8.892;2022-11-09T20:31:33;96882.66;;;24.52;40.74
31595;BME280;18200;48.726;8.892;2022-11-09T20:35:53;96888.97;;;24.40;40.55
31595;BME280;18200;48.726;8.892;2022-11-09T20:40:13;96898.41;;;24.39;40.72
31595;BME280;18200;48.726;8.892;2022-11-09T20:44:32;96907.56;;;24.71;40.12
31595;BME280;18200;48.726;8.892;2022-11-09T20:48:51;96911.59;;;24.44;39.90
31595;BME280;18200;48.726;8.892;2022-11-09T20:53:10;96915.28;;;24.76;40.33
31595;BME280;18200;48.726;8.892;2022-11-09T20:57:29;96917.03;;;24.70;40.54
31595;BME280;18200;48.726;8.892;2022-11-09T21:01:48;96929.38;;;24.40;40.60
31595;BME280;18200;48.726;8.892;2022-11-09T21:06:08;96935.84;;;24.46;40.85
31595;BME280;18200;48.726;8.892;2022-11-09T21:10:28;96932.16;;;24.27;42.22
31595;BME280;18200;48.726;8.892;2022-11-09T21:14:46;96927.41;;;24.40;42.03
31595;BME280;18200;48.726;8.892;2022-11-09T21:19:05;96934.91;;;24.27;42.22
31595;BME280;18200;48.726;8.892;2022-11-09T21:23:24;96939.94;;;24.41;41.66
31595;BME280;18200;48.726;8.892;2022-11-09T21:27:43;96944.31;;;24.01;42.67
31595;BME280;18200;48.726;8.892;2022-11-09T21:32:22;96947.84;;;24.27;42.22
31595;BME280;18200;48.726;8.892;2022-11-09T21:36:41;96947.66;;;24.21;42.62
31595;BME280;18200;48.726;8.892;2022-11-09T21:41:03;96947.19;;;24.35;42.18
31595;BME280;18200;48.726;8.892;2022-11-09T21:45:47;96959.94;;;24.29;42.11
31595;BME280;18200;48.726;8.892;2022-11-09T21:50:07;96961.78;;;24.20;42.15
31595;BME280;18200;48.726;8.892;2022-11-09T21:54:26;96968.03;;;23.95;43.06
31595;BME280;18200;48.726;8.892;2022-11-09T21:58:47;96963.88;;;24.28;42.46
31595;BME280;18200;48.726;8.892;2022-11-09T22:03:06;96966.28;;;23.47;43.39
31595;BME280;18200;48.726;8.892;2022-11-09T22:07:25;96972.59;;;23.73;43.25
31595;BME280;18200;48.726;8.892;2022-11-09T22:11:44;96977.81;;;24.09;42.77
31595;BME280;18200;48.726;8.892;2022-11-09T22:16:23;96989.56;;;24.09;42.54
31595;BME280;18200;48.726;8.892;2022-11-09T22:20:43;96994.41;;;24.30;42.19
31595;BME280;18200;48.726;8.892;2022-11-09T22:25:14;96994.00;;;24.44;41.71
31595;BME280;18200;48.726;8.892;2022-11-09T22:29:32;97003.63;;;24.36;41.90
31595;BME280;18200;48.726;8.892;2022-11-09T22:33:52;97003.09;;;23.75;42.44
31595;BME280;18200;48.726;8.892;2022-11-09T22:38:11;97021.63;;;22.97;44.62
31595;BME280;18200;48.726;8.892;2022-11-09T22:42:30;97027.78;;;23.34;43.68
31595;BME280;18200;48.726;8.892;2022-11-09T22:46:49;97033.25;;;23.62;43.40
31595;BME280;18200;48.726;8.892;2022-11-09T22:51:10;97029.09;;;23.26;43.39
31595;BME280;18200;48.726;8.892;2022-11-09T22:55:30;97045.47;;;23.74;43.13
31595;BME280;18200;48.726;8.892;2022-11-09T22:59:49;97058.03;;;24.00;42.42
31595;BME280;18200;48.726;8.892;2022-11-09T23:04:08;97052.66;;;24.25;41.91
31595;BME280;18200;48.726;8.892;2022-11-09T23:08:28;97064.50;;;24.35;41.68
31595;BME280;18200;48.726;8.892;2022-11-09T23:12:47;97077.44;;;23.80;42.20
31595;BME280;18200;48.726;8.892;2022-11-09T23:17:06;97071.22;;;24.21;42.02
31595;BME280;18200;48.726;8.892;2022-11-09T23:21:45;97083.19;;;23.99;42.13
31595;BME280;18200;48.726;8.892;2022-11-09T23:26:05;97090.38;;;24.09;41.93
31595;BME280;18200;48.726;8.892;2022-11-09T23:30:24;97088.00;;;23.95;41.77
31595;BME280;18200;48.726;8.892;2022-11-09T23:34:43;97095.34;;;24.14;41.68
31595;BME280;18200;48.726;8.892;2022-11-09T23:39:02;97096.13;;;24.14;41.75
31595;BME280;18200;48.726;8.892;2022-11-09T23:43:21;97112.56;;;23.85;41.95
31595;BME280;18200;48.726;8.892;2022-11-09T23:47:40;97107.56;;;23.97;42.15
31595;BME280;18200;48.726;8.892;2022-11-09T23:51:59;97105.81;;;24.31;41.74
31595;BME280;18200;48.726;8.892;2022-11-09T23:56:18;97103.41;;;24.33;40.75
